createdAt,value
2019-04-26T00:02:40.779Z,16.90
2019-04-26T00:05:16.889Z,16.90
2019-04-26T00:07:48.117Z,16.90
2019-04-26T00:10:56.888Z,16.90
2019-04-26T00:13:48.384Z,16.90
2019-04-26T00:16:36.068Z,16.80
2019-04-26T00:19:08.206Z,16.90
2019-04-26T00:21:44.686Z,16.80
2019-04-26T00:24:24.921Z,16.90
2019-04-26T00:27:12.733Z,16.80
2019-04-26T00:29:46.717Z,16.80
2019-04-26T00:32:19.179Z,16.70
2019-04-26T00:34:52.366Z,16.70
2019-04-26T00:37:23.115Z,16.60
2019-04-26T00:40:00.606Z,16.60
2019-04-26T00:42:32.466Z,16.50
2019-04-26T00:45:03.202Z,16.40
2019-04-26T00:47:37.429Z,16.40
2019-04-26T00:50:15.252Z,16.30
2019-04-26T00:55:17.887Z,16.30
2019-04-26T00:57:49.536Z,16.20
2019-04-26T01:00:21.848Z,16.20
2019-04-26T01:02:55.112Z,16.30
2019-04-26T01:05:26.561Z,16.40
2019-04-26T01:07:57.969Z,16.40
2019-04-26T01:10:28.739Z,16.30
2019-04-26T01:12:59.510Z,16.20
2019-04-26T01:15:30.101Z,16.30
2019-04-26T01:18:00.829Z,16.20
2019-04-26T01:20:33.548Z,16.10
2019-04-26T01:23:07.268Z,16.10
2019-04-26T01:26:12.107Z,16.20
2019-04-26T01:29:04.644Z,16.10
2019-04-26T01:31:39.416Z,16.00
2019-04-26T01:34:10.161Z,15.90
2019-04-26T01:36:41.785Z,15.80
2019-04-26T01:39:21.264Z,15.80
2019-04-26T01:42:16.461Z,15.80
2019-04-26T01:45:00.228Z,15.70
2019-04-26T01:47:30.910Z,15.70
2019-04-26T01:50:01.756Z,15.60
2019-04-26T01:52:32.841Z,15.60
2019-04-26T01:55:04.159Z,15.60
2019-04-26T01:57:35.276Z,15.50
2019-04-26T02:00:45.576Z,15.50
2019-04-26T02:03:28.343Z,15.50
2019-04-26T02:05:59.300Z,15.50
2019-04-26T02:08:30.360Z,15.60
2019-04-26T02:11:02.107Z,15.60
2019-04-26T02:13:33.246Z,15.70
2019-04-26T02:16:05.494Z,15.70
2019-04-26T02:18:52.745Z,15.60
2019-04-26T02:21:34.549Z,15.60
2019-04-26T02:24:34.378Z,15.60
2019-04-26T02:27:28.370Z,15.60
2019-04-26T02:30:11.359Z,15.60
2019-04-26T02:32:49.243Z,15.40
2019-04-26T02:35:30.808Z,15.40
2019-04-26T02:38:21.818Z,15.40
2019-04-26T02:41:06.428Z,15.40
2019-04-26T02:44:02.084Z,15.40
2019-04-26T02:47:01.042Z,15.40
2019-04-26T02:49:41.206Z,15.40
2019-04-26T02:52:44.726Z,15.40
2019-04-26T02:55:43.781Z,15.40
2019-04-26T02:58:22.660Z,15.20
2019-04-26T03:01:19.652Z,15.20
2019-04-26T03:04:21.538Z,15.20
2019-04-26T03:07:18.463Z,15.20
2019-04-26T03:09:53.998Z,15.20
2019-04-26T03:12:48.256Z,15.30
2019-04-26T03:15:39.199Z,15.20
2019-04-26T03:19:06.764Z,15.20
2019-04-26T03:21:48.857Z,15.30
2019-04-26T03:24:28.883Z,15.40
2019-04-26T03:27:52.443Z,15.40
2019-04-26T03:30:52.736Z,15.50
2019-04-26T03:34:00.205Z,15.60
2019-04-26T03:37:20.169Z,15.50
2019-04-26T03:39:58.191Z,15.60
2019-04-26T03:43:05.508Z,15.60
2019-04-26T03:46:12.974Z,15.60
2019-04-26T03:53:21.059Z,15.80
2019-04-26T03:56:55.044Z,16.20
2019-04-26T03:59:56.834Z,16.70
2019-04-26T04:02:55.594Z,17.30
2019-04-26T04:05:40.137Z,17.40
2019-04-26T04:14:18.502Z,17.60
2019-04-26T04:24:19.810Z,19.10
2019-04-26T04:27:35.390Z,19.20
2019-04-26T04:30:30.661Z,19.50
2019-04-26T04:34:12.597Z,19.90
2019-04-26T04:37:14.267Z,20.10
2019-04-26T04:40:47.170Z,20.30
2019-04-26T04:43:45.216Z,20.10
2019-04-26T04:46:50.387Z,20.30
2019-04-26T04:49:44.451Z,19.80
2019-04-26T04:52:35.701Z,19.30
2019-04-26T04:55:29.515Z,18.90
2019-04-26T04:58:21.042Z,18.60
2019-04-26T05:01:46.294Z,18.40
2019-04-26T05:04:53.170Z,18.20
2019-04-26T05:11:23.177Z,18.00
2019-04-26T05:14:15.037Z,18.30
2019-04-26T05:20:17.909Z,19.00
2019-04-26T05:23:51.069Z,21.80
2019-04-26T05:27:29.143Z,23.00
2019-04-26T05:30:42.153Z,24.10
2019-04-26T05:33:34.641Z,24.20
2019-04-26T05:36:57.592Z,23.30
2019-04-26T05:40:14.321Z,23.80
2019-04-26T05:43:50.281Z,24.30
2019-04-26T05:48:01.305Z,24.10
2019-04-26T05:51:25.419Z,24.80
2019-04-26T05:54:58.238Z,25.00
2019-04-26T05:58:10.501Z,25.90
2019-04-26T06:06:08.166Z,26.20
2019-04-26T06:09:45.863Z,26.90
2019-04-26T06:12:41.470Z,27.70
2019-04-26T06:15:55.994Z,25.00
2019-04-26T06:19:09.707Z,24.90
2019-04-26T06:22:11.250Z,26.30
2019-04-26T06:25:40.542Z,27.00
2019-04-26T06:28:29.026Z,28.30
2019-04-26T06:31:25.858Z,28.40
2019-04-26T06:37:48.887Z,28.80
2019-04-26T06:40:53.515Z,29.50
2019-04-26T06:43:44.489Z,29.20
2019-04-26T06:47:04.014Z,29.30
2019-04-26T06:50:28.945Z,29.40
2019-04-26T06:53:30.074Z,30.00
2019-04-26T06:56:54.641Z,29.90
2019-04-26T06:59:59.792Z,30.00
2019-04-26T07:03:16.093Z,30.50
2019-04-26T07:06:14.247Z,29.30
2019-04-26T07:16:22.244Z,29.10
2019-04-26T07:20:01.458Z,29.60
2019-04-26T07:23:15.665Z,29.80
2019-04-26T07:26:25.587Z,29.70
2019-04-26T07:29:13.844Z,29.70
2019-04-26T07:32:02.286Z,29.00
2019-04-26T07:35:22.318Z,29.60
2019-04-26T07:39:18.490Z,29.80
2019-04-26T07:42:41.854Z,30.60
2019-04-26T07:46:04.016Z,30.50
2019-04-26T07:49:17.040Z,31.60
2019-04-26T07:52:39.790Z,31.60
2019-04-26T07:55:45.803Z,31.30
2019-04-26T07:59:04.217Z,30.40
2019-04-26T08:02:36.735Z,30.90
2019-04-26T08:05:32.651Z,31.30
2019-04-26T08:08:20.189Z,31.60
2019-04-26T08:11:17.628Z,31.70
2019-04-26T08:14:08.536Z,30.10
2019-04-26T08:17:08.150Z,31.00
2019-04-26T08:19:53.560Z,31.40
2019-04-26T08:22:35.091Z,31.60
2019-04-26T08:25:23.605Z,30.40
2019-04-26T08:28:07.268Z,29.60
2019-04-26T08:30:50.313Z,31.20
2019-04-26T08:33:36.029Z,31.30
2019-04-26T08:36:17.721Z,31.60
2019-04-26T08:39:15.906Z,29.40
2019-04-26T08:41:57.522Z,29.40
2019-04-26T08:44:58.963Z,30.40
2019-04-26T08:48:15.724Z,30.60
2019-04-26T08:50:52.705Z,30.60
2019-04-26T08:53:35.138Z,30.20
2019-04-26T08:56:17.460Z,29.10
2019-04-26T08:59:00.664Z,29.20
2019-04-26T09:01:52.787Z,28.20
2019-04-26T09:04:41.721Z,27.60
2019-04-26T09:07:19.826Z,27.80
2019-04-26T09:10:10.590Z,29.00
2019-04-26T09:12:41.822Z,29.90
2019-04-26T09:15:34.815Z,30.40
2019-04-26T09:18:42.502Z,29.50
2019-04-26T09:21:17.451Z,29.50
2019-04-26T09:24:28.911Z,29.10
2019-04-26T09:27:32.413Z,28.50
2019-04-26T09:30:50.596Z,28.70
2019-04-26T09:33:54.099Z,29.10
2019-04-26T09:37:05.959Z,29.20
2019-04-26T09:40:10.117Z,28.20
2019-04-26T09:46:52.778Z,28.00
2019-04-26T09:49:43.242Z,29.00
2019-04-26T09:52:32.175Z,29.00
2019-04-26T09:55:13.946Z,29.40
2019-04-26T09:57:48.058Z,28.60
2019-04-26T10:00:36.401Z,28.60
2019-04-26T10:03:09.258Z,28.80
2019-04-26T10:05:59.136Z,28.30
2019-04-26T10:08:35.997Z,27.70
2019-04-26T10:11:16.915Z,27.40
2019-04-26T10:14:01.392Z,27.40
2019-04-26T10:17:01.167Z,27.60
2019-04-26T10:20:00.060Z,27.40
2019-04-26T10:22:37.422Z,27.50
2019-04-26T10:25:16.733Z,27.40
2019-04-26T10:27:54.740Z,27.70
2019-04-26T10:30:27.869Z,27.40
2019-04-26T10:33:04.521Z,26.70
2019-04-26T10:35:43.857Z,26.90
2019-04-26T10:38:23.901Z,27.00
2019-04-26T10:40:57.099Z,26.70
2019-04-26T10:43:33.676Z,26.00
2019-04-26T10:46:07.798Z,25.90
2019-04-26T10:48:41.378Z,25.80
2019-04-26T10:51:29.747Z,26.30
2019-04-26T10:54:08.717Z,26.10
2019-04-26T10:56:54.903Z,26.20
2019-04-26T10:59:46.522Z,26.60
2019-04-26T11:02:41.463Z,26.50
2019-04-26T11:05:36.435Z,26.40
2019-04-26T11:08:08.824Z,26.20
2019-04-26T11:10:54.222Z,25.90
2019-04-26T11:13:32.282Z,26.00
2019-04-26T11:16:08.555Z,26.30
2019-04-26T11:18:46.955Z,26.50
2019-04-26T11:21:26.232Z,26.20
2019-04-26T11:24:09.622Z,25.80
2019-04-26T11:27:05.336Z,25.60
2019-04-26T11:29:40.957Z,25.90
2019-04-26T11:32:14.416Z,26.00
2019-04-26T11:35:01.457Z,26.00
2019-04-26T11:37:34.687Z,26.10
2019-04-26T11:40:29.869Z,26.00
2019-04-26T11:43:15.829Z,25.80
2019-04-26T11:45:49.330Z,25.60
2019-04-26T11:48:39.809Z,25.60
2019-04-26T11:51:36.334Z,25.80
2019-04-26T11:54:20.850Z,26.00
2019-04-26T11:57:00.541Z,25.90
2019-04-26T11:59:47.868Z,25.90
2019-04-26T12:02:38.921Z,26.10
2019-04-26T12:05:49.674Z,25.90
2019-04-26T12:08:49.042Z,26.00
2019-04-26T12:11:30.321Z,25.80
2019-04-26T12:14:04.112Z,25.70
2019-04-26T12:16:59.619Z,25.60
2019-04-26T12:19:42.625Z,25.50
2019-04-26T12:22:34.623Z,25.50
2019-04-26T12:25:16.604Z,25.40
2019-04-26T12:27:53.998Z,25.60
2019-04-26T12:30:54.311Z,25.60
2019-04-26T12:33:33.651Z,25.60
2019-04-26T12:36:19.170Z,25.60
2019-04-26T12:39:02.206Z,25.60
2019-04-26T12:41:51.359Z,25.50
2019-04-26T12:44:32.187Z,25.70
2019-04-26T12:47:38.671Z,25.90
2019-04-26T12:50:17.854Z,25.90
2019-04-26T12:52:59.632Z,25.90
2019-04-26T12:55:49.104Z,25.60
2019-04-26T12:58:33.471Z,25.30
2019-04-26T13:01:21.159Z,25.30
2019-04-26T13:04:17.967Z,25.20
2019-04-26T13:07:23.818Z,25.30
2019-04-26T13:10:39.813Z,25.20
2019-04-26T13:13:56.985Z,25.30
2019-04-26T13:17:01.209Z,25.30
2019-04-26T13:19:37.943Z,25.30
2019-04-26T13:22:27.894Z,24.70
2019-04-26T13:25:34.449Z,24.50
2019-04-26T13:28:06.734Z,24.20
2019-04-26T13:31:10.921Z,23.70
2019-04-26T13:34:13.148Z,23.50
2019-04-26T13:36:54.477Z,23.60
2019-04-26T13:39:33.533Z,23.60
2019-04-26T13:42:30.577Z,23.70
2019-04-26T13:45:34.592Z,23.80
2019-04-26T13:48:51.074Z,24.00
2019-04-26T13:51:35.325Z,24.10
2019-04-26T13:54:36.216Z,24.10
2019-04-26T13:57:36.334Z,24.20
2019-04-26T14:00:31.248Z,24.10
2019-04-26T14:03:12.734Z,24.00
2019-04-26T14:05:51.408Z,23.80
2019-04-26T14:08:31.065Z,23.70
2019-04-26T14:11:04.334Z,23.60
2019-04-26T14:13:38.426Z,23.60
2019-04-26T14:16:23.229Z,23.70
2019-04-26T14:19:05.776Z,23.70
2019-04-26T14:21:48.365Z,23.80
2019-04-26T14:24:38.467Z,23.80
2019-04-26T14:27:17.143Z,23.90
2019-04-26T14:30:02.482Z,24.00
2019-04-26T14:32:46.547Z,24.10
2019-04-26T14:35:32.784Z,24.10
2019-04-26T14:38:13.861Z,24.20
2019-04-26T14:41:04.217Z,24.20
2019-04-26T14:43:56.828Z,24.20
2019-04-26T14:46:49.009Z,24.30
2019-04-26T14:49:43.124Z,24.30
2019-04-26T14:52:29.014Z,24.40
2019-04-26T14:55:28.631Z,24.40
2019-04-26T14:58:30.086Z,24.40
2019-04-26T15:01:07.670Z,24.40
2019-04-26T15:04:18.747Z,24.40
2019-04-26T15:07:18.365Z,24.30
2019-04-26T15:09:58.505Z,24.20
2019-04-26T15:12:46.191Z,24.20
2019-04-26T15:15:48.070Z,24.00
2019-04-26T15:18:39.128Z,23.90
2019-04-26T15:21:34.915Z,24.00
2019-04-26T15:28:26.643Z,24.00
2019-04-26T15:31:25.122Z,23.90
2019-04-26T15:34:19.237Z,23.90
2019-04-26T15:37:14.715Z,23.90
2019-04-26T15:40:43.031Z,23.80
2019-04-26T15:43:24.302Z,23.70
2019-04-26T15:46:13.482Z,23.60
2019-04-26T15:49:26.190Z,23.50
2019-04-26T15:51:59.786Z,23.40
2019-04-26T15:54:32.500Z,23.40
2019-04-26T15:57:14.692Z,23.50
2019-04-26T15:59:47.006Z,23.30
2019-04-26T16:02:23.115Z,22.90
2019-04-26T16:04:55.962Z,22.70
2019-04-26T16:07:29.242Z,22.70
2019-04-26T16:10:04.340Z,22.70
2019-04-26T16:12:42.304Z,22.70
2019-04-26T16:15:17.020Z,22.70
2019-04-26T16:17:49.890Z,22.70
2019-04-26T16:20:44.471Z,22.70
2019-04-26T16:23:38.356Z,22.70
2019-04-26T16:26:03.417Z,22.60
2019-04-26T16:29:04.385Z,22.50
2019-04-26T16:31:58.426Z,22.40
2019-04-26T16:34:41.715Z,22.40
2019-04-26T16:37:14.992Z,22.40
2019-04-26T16:39:48.273Z,22.40
2019-04-26T16:42:18.043Z,22.40
2019-04-26T16:45:08.141Z,22.30
2019-04-26T16:47:49.347Z,22.30
2019-04-26T16:50:31.213Z,22.30
2019-04-26T16:52:57.775Z,22.30
2019-04-26T16:55:29.117Z,22.30
2019-04-26T16:58:04.412Z,22.20
2019-04-26T17:00:50.078Z,22.20
2019-04-26T17:03:09.396Z,22.20
2019-04-26T17:05:51.674Z,22.10
2019-04-26T17:08:19.288Z,22.00
2019-04-26T17:11:04.905Z,21.90
2019-04-26T17:13:48.390Z,21.90
2019-04-26T17:16:09.280Z,21.80
2019-04-26T17:18:40.140Z,21.70
2019-04-26T17:21:12.709Z,21.70
2019-04-26T17:24:15.266Z,21.70
2019-04-26T17:26:54.813Z,21.60
2019-04-26T17:29:27.867Z,21.50
2019-04-26T17:32:09.027Z,21.40
2019-04-26T17:34:40.532Z,21.40
2019-04-26T17:37:17.220Z,21.30
2019-04-26T17:39:52.157Z,21.20
2019-04-26T17:42:25.141Z,21.20
2019-04-26T17:45:03.970Z,21.10
2019-04-26T17:47:36.722Z,21.10
2019-04-26T17:50:06.797Z,21.10
2019-04-26T17:52:38.510Z,21.00
2019-04-26T17:55:11.816Z,20.90
2019-04-26T17:57:48.578Z,20.80
2019-04-26T18:00:27.062Z,20.70
2019-04-26T18:02:58.523Z,20.60
2019-04-26T18:05:55.828Z,20.50
2019-04-26T18:08:33.838Z,20.50
2019-04-26T18:10:45.368Z,20.50
2019-04-26T18:13:20.256Z,20.40
2019-04-26T18:15:53.912Z,20.30
2019-04-26T18:22:07.798Z,20.10
2019-04-26T18:24:56.941Z,20.10
2019-04-26T18:27:55.853Z,20.00
2019-04-26T18:30:36.600Z,20.00
2019-04-26T18:36:19.917Z,20.00
2019-04-26T18:39:22.890Z,19.90
2019-04-26T18:54:27.813Z,19.90
2019-04-26T18:57:39.623Z,19.70
2019-04-26T19:00:38.771Z,19.70
2019-04-26T19:03:31.114Z,19.70
2019-04-26T19:06:31.727Z,19.60
2019-04-26T19:09:58.934Z,19.60
2019-04-26T19:12:36.347Z,19.50
2019-04-26T19:15:46.707Z,19.50
2019-04-26T19:18:42.375Z,19.40
2019-04-26T19:22:00.869Z,19.40
2019-04-26T19:24:57.496Z,19.30
2019-04-26T19:28:09.329Z,19.20
2019-04-26T19:31:03.533Z,19.20
2019-04-26T19:34:05.016Z,19.10
2019-04-26T19:39:51.785Z,19.00
2019-04-26T19:42:43.018Z,19.00
2019-04-26T19:45:34.120Z,18.80
2019-04-26T19:48:22.658Z,18.80
2019-04-26T19:51:05.845Z,18.70
2019-04-26T19:54:10.542Z,18.60
2019-04-26T19:57:19.653Z,18.60
2019-04-26T19:59:56.631Z,18.50
2019-04-26T20:02:42.232Z,18.50
2019-04-26T20:05:27.634Z,18.40
2019-04-26T20:08:12.027Z,18.40
2019-04-26T20:10:53.521Z,18.40
2019-04-26T20:13:51.765Z,18.30
2019-04-26T20:22:04.036Z,18.30
2019-04-26T20:24:41.322Z,18.30
2019-04-26T20:27:59.671Z,18.20
2019-04-26T20:36:56.178Z,18.00
2019-04-26T20:40:17.572Z,18.00
2019-04-26T20:43:01.673Z,17.90
2019-04-26T20:46:11.060Z,17.80
2019-04-26T20:48:43.339Z,17.80
2019-04-26T20:51:32.311Z,17.80
2019-04-26T20:54:22.562Z,17.80
2019-04-26T20:57:02.134Z,17.70
2019-04-26T20:59:52.622Z,17.70
2019-04-26T21:02:48.885Z,17.60
2019-04-26T21:05:52.823Z,17.60
2019-04-26T21:08:33.393Z,17.50
2019-04-26T21:11:13.673Z,17.40
2019-04-26T21:13:52.342Z,17.30
2019-04-26T21:16:37.704Z,17.30
2019-04-26T21:19:19.137Z,17.30
2019-04-26T21:21:50.399Z,17.30
2019-04-26T21:24:32.266Z,17.20
2019-04-26T21:34:44.947Z,17.10
2019-04-26T21:37:40.664Z,17.10
2019-04-26T21:40:34.419Z,17.10
2019-04-26T21:43:36.954Z,17.00
2019-04-26T21:46:37.828Z,17.10
2019-04-26T21:49:52.750Z,17.10
2019-04-26T21:58:48.527Z,17.00
2019-04-26T22:02:17.253Z,16.90
2019-04-26T22:04:58.616Z,16.90
2019-04-26T22:07:32.811Z,16.80
2019-04-26T22:10:32.929Z,16.80
2019-04-26T22:13:48.321Z,16.70
2019-04-26T22:25:29.575Z,16.70
2019-04-26T22:28:03.362Z,16.70
2019-04-26T22:30:48.204Z,16.70
2019-04-26T22:33:46.706Z,16.60
2019-04-26T22:36:43.895Z,16.60
2019-04-26T22:39:32.700Z,16.50
2019-04-26T22:42:27.283Z,16.50
2019-04-26T22:45:14.270Z,16.50
2019-04-26T22:47:58.760Z,16.40
2019-04-26T22:51:11.074Z,16.40
2019-04-26T22:54:06.199Z,16.40
2019-04-26T22:57:08.177Z,16.40
2019-04-26T22:59:54.618Z,16.30
2019-04-26T23:09:47.467Z,16.20
2019-04-26T23:12:57.889Z,16.20
2019-04-26T23:16:25.107Z,16.20
2019-04-26T23:19:38.530Z,16.20
2019-04-26T23:22:15.600Z,16.10
2019-04-26T23:24:49.198Z,16.10
2019-04-26T23:27:23.270Z,16.10
2019-04-26T23:30:00.250Z,16.10
2019-04-26T23:32:33.902Z,16.00
2019-04-26T23:35:29.783Z,16.00
2019-04-26T23:38:14.234Z,16.00
2019-04-26T23:41:07.510Z,15.90
2019-04-26T23:43:41.717Z,15.90
2019-04-26T23:46:27.045Z,15.80
2019-04-26T23:49:33.475Z,15.80
2019-04-26T23:52:25.456Z,15.80
2019-04-26T23:55:23.602Z,15.80
2019-04-26T23:58:23.043Z,15.80
